createdAt,value
2022-10-19T00:02:20.369Z,18.70
2022-10-19T00:07:23.194Z,16.95
2022-10-19T00:12:27.200Z,19.08
2022-10-19T00:17:30.449Z,18.00
2022-10-19T00:22:33.164Z,18.08
2022-10-19T00:27:37.488Z,20.50
2022-10-19T00:32:45.698Z,20.77
2022-10-19T00:37:48.518Z,18.48
2022-10-19T00:42:57.200Z,17.92
2022-10-19T00:47:59.659Z,18.70
2022-10-19T00:53:02.750Z,16.48
2022-10-19T00:58:07.027Z,16.67
2022-10-19T01:03:11.580Z,16.73
2022-10-19T01:08:17.239Z,16.07
2022-10-19T01:13:34.382Z,16.05
2022-10-19T01:18:43.906Z,16.80
2022-10-19T01:24:13.803Z,17.48
2022-10-19T01:29:29.035Z,15.23
2022-10-19T01:34:40.555Z,15.60
2022-10-19T01:39:50.622Z,14.85
2022-10-19T01:44:56.878Z,15.90
2022-10-19T01:50:07.635Z,15.50
2022-10-19T01:55:14.395Z,15.30
2022-10-19T02:00:18.903Z,15.30
2022-10-19T02:05:28.767Z,14.47
2022-10-19T02:10:33.263Z,15.38
2022-10-19T02:15:38.701Z,17.67
2022-10-19T02:20:42.653Z,16.45
2022-10-19T02:25:45.251Z,17.35
2022-10-19T02:30:51.881Z,16.85
2022-10-19T02:35:56.917Z,16.90
2022-10-19T02:41:09.830Z,16.08
2022-10-19T02:46:25.389Z,15.73
2022-10-19T02:51:34.165Z,16.23
2022-10-19T02:56:48.141Z,19.52
2022-10-19T03:02:00.881Z,21.92
2022-10-19T03:07:10.257Z,23.58
2022-10-19T03:12:14.722Z,21.58
2022-10-19T03:17:19.318Z,21.73
2022-10-19T03:22:27.834Z,22.50
2022-10-19T03:27:30.087Z,22.42
2022-10-19T03:32:32.948Z,23.20
2022-10-19T03:37:37.592Z,22.40
2022-10-19T03:42:39.892Z,19.65
2022-10-19T03:47:42.060Z,22.23
2022-10-19T03:52:45.859Z,20.73
2022-10-19T03:57:50.763Z,19.60
2022-10-19T04:02:56.335Z,19.17
2022-10-19T04:08:03.150Z,19.92
2022-10-19T04:13:05.595Z,21.83
2022-10-19T04:18:08.446Z,20.92
2022-10-19T11:36:04.118Z,13.55
2022-10-19T11:41:25.494Z,13.07
2022-10-19T11:46:37.174Z,13.73
2022-10-19T11:51:50.037Z,12.35
2022-10-19T11:57:03.560Z,13.10
2022-10-19T12:02:27.735Z,10.98
2022-10-19T12:07:44.725Z,12.27
2022-10-19T12:12:49.344Z,12.20
2022-10-19T12:28:32.134Z,11.95
2022-10-19T12:33:47.647Z,11.57
2022-10-19T12:39:00.625Z,11.65
2022-10-19T12:44:21.513Z,11.52
2022-10-19T12:50:30.090Z,11.00
2022-10-19T12:55:48.140Z,10.95
2022-10-19T13:01:03.221Z,11.25
2022-10-19T13:06:12.862Z,11.90
2022-10-19T13:11:27.327Z,11.48
2022-10-19T13:16:57.818Z,10.43
2022-10-19T13:27:27.640Z,10.75
2022-10-19T13:32:44.099Z,11.52
2022-10-19T13:37:45.939Z,10.05
2022-10-19T13:42:58.793Z,10.57
2022-10-19T13:48:14.842Z,10.65
2022-10-19T13:53:35.701Z,10.30
2022-10-19T14:21:06.227Z,10.48
2022-10-19T14:26:17.307Z,10.73
2022-10-19T14:31:23.306Z,11.25
2022-10-19T14:36:35.640Z,10.75
2022-10-19T14:47:19.892Z,10.98
2022-10-19T14:57:48.852Z,10.32
2022-10-19T15:03:04.841Z,11.50
2022-10-19T15:08:10.484Z,10.65
2022-10-19T15:13:22.686Z,10.88
2022-10-19T15:18:47.753Z,10.85
2022-10-19T15:23:50.299Z,11.73
2022-10-19T15:28:53.206Z,11.57
2022-10-19T15:33:57.520Z,11.43
2022-10-19T15:39:18.160Z,11.45
2022-10-19T15:44:33.245Z,11.27
2022-10-19T15:49:53.380Z,10.55
2022-10-19T15:54:58.635Z,11.25
2022-10-19T16:05:03.325Z,10.25
2022-10-19T16:10:08.039Z,10.50
2022-10-19T16:15:12.407Z,11.77
2022-10-19T16:20:14.771Z,11.40
2022-10-19T16:25:18.483Z,11.75
2022-10-19T16:30:20.334Z,11.48
2022-10-19T18:18:04.352Z,17.87
2022-10-19T18:23:16.861Z,16.75
2022-10-19T18:28:19.059Z,15.38
2022-10-19T18:33:20.915Z,14.43
2022-10-19T18:44:46.702Z,13.35
2022-10-19T19:00:43.320Z,14.50
2022-10-19T20:05:36.373Z,14.02
2022-10-19T20:11:03.143Z,13.98
2022-10-19T21:28:21.849Z,15.88
2022-10-19T21:38:49.548Z,16.05
2022-10-19T21:49:55.968Z,16.48
2022-10-19T21:55:17.185Z,16.80
2022-10-19T22:00:50.593Z,17.33
2022-10-19T22:06:24.783Z,18.45
2022-10-19T22:11:38.067Z,17.55
2022-10-19T22:16:59.851Z,17.98
2022-10-19T22:22:23.076Z,18.25
2022-10-19T22:27:42.519Z,17.00
2022-10-19T22:38:10.833Z,16.65
2022-10-19T22:43:21.960Z,17.17
2022-10-19T23:21:22.228Z,16.70
2022-10-19T23:26:36.526Z,13.30
2022-10-19T23:43:23.969Z,15.52
